Terminal Aerodrome Forecast
Issued by NWS Shreveport, LA

Home | Current Version | Previous Version | Text Only | Print | Product List | Glossary On
Versions: 1 2 3 4 5 6 7 8 9 10 11 12
000
FTUS44 KSHV 251748
TAFTXK
TAF
KTXK 251748Z 2518/2618 17005KT P6SM SCT040 BKN250
     FM260100 VRB04KT P6SM BKN250
     FM260600 35004KT P6SM SCT045 BKN250
     FM260900 36005KT P6SM BKN012
     FM261200 02008KT P6SM OVC015
     FM261500 03010KT P6SM BKN020=

USA.gov is the U.S. government's official web portal to all federal, state and local government web resources and services.